Sun Globe — 9HA2857 — position and weather

sailwx.info

Track history (hours):
 
Tides and Currents Weather Stations Pressure Air Temp Water Temp Dewpoint Dewpoint Depression Visibility Wind Speed Wind Dir Waves Ship Positions

Sun Globe

Last reported at 2017-Jul-01 10:30 UTC. Time now 2017-Aug-22 22:36 UTC.
Position N 29°19' W 130°48'.
Warning: this ship's position is 52 days out of date.

Length 190 m; draft 11.9 m.

Type: Cargo ship. MMSI: 256415000.

Date/timePositionNaut miles runAvg speedWind from/ knotsBaromVisibWave heightAir tempDewpointWater temp
2017-Jul-01 10:30N 29°19' W 130°48'9212.8
2017-Jul-01 03:21N 28°32' W 129°18'712.8
2017-Jul-01 02:47N 28°28' W 129°11'412.9
2017-Jul-01 02:28N 28°26' W 129°07'613.0
2017-Jul-01 02:00N 28°23' W 129°01'712.8
2017-Jul-01 01:29N 28°19' W 128°54'612.9
2017-Jul-01 01:00N 28°16' W 128°48'712.8
2017-Jul-01 00:30N 28°12' W 128°42'713.0
2017-Jun-30 23:58N 28°09' W 128°36'613.2
2017-Jun-30 23:31N 28°05' W 128°30'713.3
2017-Jun-30 23:00N 28°02' W 128°23'1213.0
2017-Jun-30 22:06N 27°56' W 128°12'412.9
2017-Jun-30 21:45N 27°54' W 128°08'313.1
2017-Jun-30 21:31N 27°52' W 128°04'713.0
2017-Jun-30 20:56N 27°48' W 127°57'713.0
2017-Jun-30 20:22N 27°44' W 127°50'512.9
2017-Jun-30 20:00N 27°42' W 127°46'712.8
2017-Jun-30 19:27N 27°38' W 127°39'612.9
2017-Jun-30 19:01N 27°35' W 127°33'7312.9
2017-Jun-30 13:18N 26°51' W 126°27'11813.0
2017-Jun-30 04:17N 25°42' W 124°41'412.8
2017-Jun-30 03:57N 25°39' W 124°38'1212.8
2017-Jun-30 03:00N 25°33' W 124°26'813.0
2017-Jun-30 02:21N 25°28' W 124°18'513.0
2017-Jun-30 01:59N 25°26' W 124°14'2813.1
2017-Jun-29 23:50N 25°10' W 123°48'513.2
2017-Jun-29 23:25N 25°07' W 123°43'813.3
2017-Jun-29 22:49N 25°02' W 123°36'413.1
2017-Jun-29 22:30N 24°60' W 123°32'713.3
2017-Jun-29 21:57N 24°56' W 123°26'8113.2
2017-Jun-29 15:48N 24°09' W 122°12'6413.0
2017-Jun-29 10:52N 23°32' W 121°15'  
Track history (hours):
 
Tides and Currents Weather Stations Pressure Air Temp Water Temp Dewpoint Dewpoint Depression Visibility Wind Speed Wind Dir Waves Ship Positions

Sun Globe

Last reported at 2017-Jul-01 10:30 UTC. Time now 2017-Aug-22 22:36 UTC.
Position N 29°19' W 130°48'.
Warning: this ship's position is 52 days out of date.

Length 190 m; draft 11.9 m.

Type: Cargo ship. MMSI: 256415000.

Date/timePositionNaut miles runAvg speedWind from/ knotsBaromVisibWave heightAir tempDewpointWater temp
2017-Jul-01 10:30N 29°19' W 130°48'9212.8
2017-Jul-01 03:21N 28°32' W 129°18'712.8
2017-Jul-01 02:47N 28°28' W 129°11'412.9
2017-Jul-01 02:28N 28°26' W 129°07'613.0
2017-Jul-01 02:00N 28°23' W 129°01'712.8
2017-Jul-01 01:29N 28°19' W 128°54'612.9
2017-Jul-01 01:00N 28°16' W 128°48'712.8
2017-Jul-01 00:30N 28°12' W 128°42'713.0
2017-Jun-30 23:58N 28°09' W 128°36'613.2
2017-Jun-30 23:31N 28°05' W 128°30'713.3
2017-Jun-30 23:00N 28°02' W 128°23'1213.0
2017-Jun-30 22:06N 27°56' W 128°12'412.9
2017-Jun-30 21:45N 27°54' W 128°08'313.1
2017-Jun-30 21:31N 27°52' W 128°04'713.0
2017-Jun-30 20:56N 27°48' W 127°57'713.0
2017-Jun-30 20:22N 27°44' W 127°50'512.9
2017-Jun-30 20:00N 27°42' W 127°46'712.8
2017-Jun-30 19:27N 27°38' W 127°39'612.9
2017-Jun-30 19:01N 27°35' W 127°33'7312.9
2017-Jun-30 13:18N 26°51' W 126°27'11813.0
2017-Jun-30 04:17N 25°42' W 124°41'412.8
2017-Jun-30 03:57N 25°39' W 124°38'1212.8
2017-Jun-30 03:00N 25°33' W 124°26'813.0
2017-Jun-30 02:21N 25°28' W 124°18'513.0
2017-Jun-30 01:59N 25°26' W 124°14'2813.1
2017-Jun-29 23:50N 25°10' W 123°48'513.2
2017-Jun-29 23:25N 25°07' W 123°43'813.3
2017-Jun-29 22:49N 25°02' W 123°36'413.1
2017-Jun-29 22:30N 24°60' W 123°32'713.3
2017-Jun-29 21:57N 24°56' W 123°26'8113.2
2017-Jun-29 15:48N 24°09' W 122°12'6413.0
2017-Jun-29 10:52N 23°32' W 121°15'  

Dump ship's entire track history